• Join FlightAware (Why Join?)
  • Login
  • US Flag 
10:08PM EDT


 

Airport Tracker/Info


-or-


 

Live Flight TrackerFlight Track Log ✈ N2193G ✈ 14-May-2012 ✈ KMYR - KGNV

Flight Track Log - Related Links

Times and Time Zones

All times are in EDT time to prevent confusion due to time zone crossing. See the N2193G flight status page for this flight to view local times or setup timezone preferences in your user account.

Time Position Orientation Groundspeed Altitude Reporting Facility
EDT Latitude Longitude Course Direction KTS MPH feet Rate Location/Type
03:40PM 33.6106 -78.9697 216° Southwest 115 132 2,000  Level Jacksonville Center
03:45PM 33.4928 -79.0722 210° Southwest 119 137 5,000 660 Climbing Jacksonville Center
03:46PM 33.4661 -79.0908 215° Southwest 119 137 5,700 660 Climbing Jacksonville Center
03:47PM 33.4417 -79.1117 219° Southwest 119 137 6,400 660 Climbing Jacksonville Center
03:48PM 33.4175 -79.1350 215° Southwest 119 137 7,100 600 Climbing Jacksonville Center
03:49PM 33.3889 -79.1586 221° Southwest 124 143 7,700 600 Climbing Jacksonville Center
03:50PM 33.3667 -79.1819 215° Southwest 119 137 8,400 660 Climbing Jacksonville Center
03:51PM 33.3381 -79.2056 215° Southwest 119 137 9,100 600 Climbing Jacksonville Center
03:52PM 33.3094 -79.2292 219° Southwest 124 143 9,700 660 Climbing Jacksonville Center
03:53PM 33.2831 -79.2550 217° Southwest 124 143 10,500 660 Climbing Jacksonville Center
03:54PM 33.2567 -79.2786 211° Southwest 124 143 11,100 600 Climbing Jacksonville Center
03:55PM 33.2281 -79.2994 219° Southwest 124 143 11,800 660 Climbing Jacksonville Center
03:56PM 33.2017 -79.3253 217° Southwest 124 143 12,500 600 Climbing Jacksonville Center
03:57PM 33.1753 -79.3489 216° Southwest 124 143 13,100 600 Climbing Jacksonville Center
03:58PM 33.1486 -79.3722 211° Southwest 124 143 13,700 540 Climbing Jacksonville Center
03:59PM 33.1200 -79.3931 218° Southwest 124 143 14,200 540 Climbing Jacksonville Center
04:00PM 33.0917 -79.4192 220° Southwest 124 143 14,800 480 Climbing Jacksonville Center
04:01PM 33.0631 -79.4475 218° Southwest 124 143 15,200 420 Climbing Jacksonville Center
04:02PM 33.0325 -79.4758 217° Southwest 134 154 15,700 420 Climbing Jacksonville Center
04:03PM 33.0061 -79.4992 213° Southwest 139 160 16,100 420 Climbing Jacksonville Center
04:04PM 32.9733 -79.5250 216° Southwest 139 160 16,600 480 Climbing Jacksonville Center
04:05PM 32.9408 -79.5536 216° Southwest 144 166 17,100 480 Climbing Jacksonville Center
04:06PM 32.9081 -79.5819 216° Southwest 149 171 17,600 360 Climbing Jacksonville Center
04:07PM 32.8756 -79.6103 212° Southwest 149 171 17,900 360 Climbing Jacksonville Center
04:08PM 32.8406 -79.6364 223° Southwest 149 171 18,400 480 Climbing Jacksonville Center
04:09PM 32.8103 -79.6697 214° Southwest 149 171 18,900 300 Climbing Jacksonville Center
04:10PM 32.7756 -79.6981 217° Southwest 149 171 19,000  Climbing Jacksonville Center
04:11PM 32.7386 -79.7314 214° Southwest 149 171 19,000  Level Jacksonville Center
04:12PM 32.6997 -79.7625 219° Southwest 160 184 19,000  Level Jacksonville Center
04:13PM 32.6631 -79.7983 215° Southwest 167 192 19,000  Level Jacksonville Center
04:14PM 32.6222 -79.8317 216° Southwest 167 192 19,000  Level Jacksonville Center
04:15PM 32.5833 -79.8650 215° Southwest 172 198 19,000  Level Jacksonville Center
04:16PM 32.5425 -79.8983 218° Southwest 177 204 19,000  Level Jacksonville Center
04:17PM 32.5036 -79.9342 214° Southwest 177 204 19,000  Level Jacksonville Center
04:18PM 32.4625 -79.9675 217° Southwest 177 204 19,000  Level Jacksonville Center
04:19PM 32.4217 -80.0033 214° Southwest 177 204 19,000  Level Jacksonville Center
04:20PM 32.3806 -80.0367 216° Southwest 177 204 19,000  Level Jacksonville Center
04:21PM 32.3397 -80.0722 217° Southwest 182 209 19,000  Level Jacksonville Center
04:22PM 32.3028 -80.1053 217° Southwest 182 209 19,000  Level Jacksonville Center
04:23PM 32.2619 -80.1411 218° Southwest 182 209 19,000  Level Jacksonville Center
04:24PM 32.2231 -80.1767 214° Southwest 182 209 19,000  Level Jacksonville Center
04:25PM 32.1819 -80.2097 218° Southwest 182 209 19,000  Level Jacksonville Center
04:26PM 32.1411 -80.2478 217° Southwest 182 209 19,000  Level Jacksonville Center
04:27PM 32.1019 -80.2831 209° Southwest 182 209 19,000  Level Jacksonville Center
04:28PM 32.0589 -80.3114 216° Southwest 182 209 19,000  Level Jacksonville Center
04:29PM 32.0178 -80.3467 214° Southwest 182 209 19,000  Level Jacksonville Center
04:30PM 31.9767 -80.3797 218° Southwest 182 209 19,000  Level Jacksonville Center
04:31PM 31.9356 -80.4175 222° Southwest 187 215 19,000  Level Jacksonville Center
04:32PM 31.8947 -80.4603 214° Southwest 187 215 19,000  Level Jacksonville Center
04:33PM 31.8536 -80.4931 216° Southwest 187 215 19,000  Level Jacksonville Center
04:34PM 31.8125 -80.5286 216° Southwest 187 215 19,000  Level Jacksonville Center
04:35PM 31.7775 -80.5586 215° Southwest 187 215 19,000  Level Jacksonville Center
04:36PM 31.7322 -80.5964 213° Southwest 187 215 19,000  Level Jacksonville Center
04:37PM 31.6892 -80.6292 186° South 187 215 19,000  Level Jacksonville Center
04:38PM 31.6433 -80.6353 187° South 181 208 19,000  Level Jacksonville Center
04:39PM 31.5850 -80.6439 186° South 204 235 19,000  Level Jacksonville Center
04:40PM 31.5286 -80.6503 196° South 199 229 19,000  Level Jacksonville Center
04:41PM 31.4808 -80.6661 191° South 183 211 19,000  Level Jacksonville Center
04:42PM 31.4311 -80.6769 190° South 180 207 19,000  Level Jacksonville Center
04:43PM 31.3792 -80.6881 186° South 188 216 19,000  Level Jacksonville Center
04:44PM 31.3292 -80.6939 193° South 188 216 19,000  Level Jacksonville Center
04:45PM 31.2792 -80.7072 190° South 188 216 19,000  Level Jacksonville Center
04:46PM 31.2292 -80.7181 190° South 188 216 19,000 -60 Level Jacksonville Center
04:47PM 31.1753 -80.7292 189° South 188 216 18,900 -300 Descending Jacksonville Center
04:48PM 31.1169 -80.7403 187° South 195 224 18,400 -480 Descending Jacksonville Center
04:49PM 31.0586 -80.7486 192° South 209 241 18,000 -240 Descending Jacksonville Center
04:50PM 31.0067 -80.7619 192° South 209 241 18,000  Level Jacksonville Center
04:51PM 30.9506 -80.7756 198° South 209 241 18,000  Level Jacksonville Center
04:52PM 30.9028 -80.7933 190° South 197 227 18,000  Level Jacksonville Center
04:53PM 30.8486 -80.8044 195° South 197 227 18,000  Level Jacksonville Center
04:54PM 30.7989 -80.8200 193° South 197 227 18,000  Level Jacksonville Center
04:55PM 30.7489 -80.8331 189° South 197 227 18,000  Level Jacksonville Center
04:56PM 30.6928 -80.8439 193° South 197 227 18,000  Level Jacksonville Center
04:57PM 30.6428 -80.8572 195° South 197 227 18,000  Level Jacksonville Center
04:58PM 30.5931 -80.8728 191° South 202 232 18,000  Level Jacksonville Center
04:59PM 30.5367 -80.8858 194° South 202 232 18,000  Level Jacksonville Center
05:00PM 30.4847 -80.9014 193° South 202 232 18,000  Level Jacksonville Center
05:01PM 30.4350 -80.9144 194° South 202 232 18,000  Level Jacksonville Center
05:02PM 30.3831 -80.9300 192° South 202 232 18,000  Level Jacksonville Center
05:03PM 30.3308 -80.9433 192° South 202 232 18,000  Level Jacksonville Center
05:04PM 30.2789 -80.9564 187° South 202 232 18,000  Level Jacksonville Center
05:05PM 30.2247 -80.9644 179° South 202 232 18,000  Level Jacksonville Center
05:06PM 30.1725 -80.9633 181° South 197 227 18,000  Level Jacksonville Center
05:07PM 30.1225 -80.9642 183° South 197 227 18,000  Level Jacksonville Center
05:08PM 30.0683 -80.9678 181° South 197 227 18,000  Level Jacksonville Center
05:09PM 30.0161 -80.9686 206° Southwest 197 227 18,000  Level Jacksonville Center
05:10PM 29.9725 -80.9936 213° Southwest 192 221 18,000  Level Jacksonville Center
05:11PM 29.9272 -81.0281 216° Southwest 192 221 18,000  Level Jacksonville Center
05:12PM 29.8839 -81.0647 213° Southwest 197 227 18,000  Level Jacksonville Center
05:13PM 29.8406 -81.0967 216° Southwest 192 221 18,000  Level Jacksonville Center
05:14PM 29.7972 -81.1333 216° Southwest 192 221 18,000  Level Jacksonville Center
05:15PM 29.7558 -81.1678 214° Southwest 192 221 18,000 -300 Level Jacksonville Center
05:16PM 29.7083 -81.2044 206° Southwest 192 221 17,400 -720 Descending Jacksonville Center
05:17PM 29.6689 -81.2267 217° Southwest 214 246 16,800 -780 Descending Jacksonville Center
05:17PM 29.6319 -81.2583 217° Southwest 214 246 16,300 -780 Descending Jacksonville Center
05:18PM 29.6092 -81.2778 215° Southwest 212 244 15,900 -5,460 Descending Jacksonville Center
05:19PM 29.5636 -81.3144 215° Southwest 212 244 8,000 -3,960 Descending Jacksonville Center
05:20PM 29.5161 -81.3533 216° Southwest 212 244 8,000  Level Jacksonville Center
05:21PM 29.4808 -81.3825 234° Southwest 212 244 8,000  Level Jacksonville Center
05:22PM 29.4461 -81.4378 278° West 211 243 8,000 2,220 Level Jacksonville Center
05:22PM 29.4508 -81.4783 295° West 199 229 11,400  Climbing Jacksonville Center
05:23PM 29.4594 -81.4997 296° West 185 213 8,000 -1,020 Descending Jacksonville Center
05:23PM 29.4744 -81.5353 294° West 196 226 10,400 900 Climbing Jacksonville Center
05:24PM 29.4958 -81.5897 292° West 195 224 9,400 -1,020 Descending Jacksonville Center
05:25PM 29.5172 -81.6492 282° West 199 229 8,400 -1,020 Descending Jacksonville Center
05:26PM 29.5283 -81.7111 291° West 196 226 7,400 -1,020 Descending Jacksonville Center
05:27PM 29.5475 -81.7681 287° West 187 215 6,400 -1,020 Descending Jacksonville Center
05:28PM 29.5628 -81.8253 289° West 185 213 5,400 -1,020 Descending Jacksonville Center
05:29PM 29.5797 -81.8825 290° West 183 211 4,400 -1,020 Descending Jacksonville Center
05:30PM 29.5969 -81.9372 288° West 185 213 3,400 -1,020 Descending Jacksonville Center
05:31PM 29.6119 -81.9919 293° West 183 211 2,400 -720 Descending Jacksonville Center
05:32PM 29.6311 -82.0444 300° West 178 205 2,000 -240 Descending Jacksonville Center
05:33PM 29.6522 -82.0872 279° West 157 181 2,000  Level Jacksonville Center
05:34PM 29.6589 -82.1372 285° West 146 168 2,000 -180 Level Jacksonville Center
05:35PM 29.6675 -82.1756 305° West 125 144 1,700 -360 Descending Jacksonville Center
05:36PM 29.6864 -82.2064 300° West 120 138 1,300 -540 Descending Jacksonville Center
05:37PM 29.7033 -82.2397 137° Southeast 107 123 700 -600 Descending Jacksonville Center
05:45PM 29.4116 -81.9323 137° Southeast  Level FlightAware Approximate